Time;durP1;ratioP1;P1;durP2;ratioP2;P2;SDS_P1;SDS_P2;PMS_P1;PMS_P2;Temp;Humidity;BMP_temperature;BMP_pressure;BME280_temperature;BME280_humidity;BME280_pressure;Samples;Min_cycle;Max_cycle;Signal;HPM_P1;HPM_P2
2023/04/03 00:00:59;;;;;;;8.27;4.63;;;;;;;0.83;100.00;102634.25;5060638;28;20072;-75
2023/04/03 00:03:24;;;;;;;11.18;5.28;;;;;;;0.84;100.00;102635.06;5059300;28;20078;-76
2023/04/03 00:05:50;;;;;;;10.57;5.38;;;;;;;0.84;100.00;102632.50;5052046;28;20511;-76
2023/04/03 00:08:16;;;;;;;10.27;5.07;;;;;;;0.82;100.00;102631.72;5077193;28;20028;-76
2023/04/03 00:10:42;;;;;;;11.63;5.25;;;;;;;0.77;100.00;102630.16;5042028;28;20743;-76
2023/04/03 00:13:08;;;;;;;9.38;4.88;;;;;;;0.71;100.00;102626.94;5040231;28;20039;-76
2023/04/03 00:15:35;;;;;;;9.10;4.95;;;;;;;0.66;100.00;102632.22;5059025;28;20032;-76
2023/04/03 00:18:01;;;;;;;8.15;5.38;;;;;;;0.62;100.00;102634.88;5057857;28;20683;-76
2023/04/03 00:20:27;;;;;;;8.18;4.63;;;;;;;0.56;100.00;102639.28;5058033;28;21105;-76
2023/04/03 00:22:52;;;;;;;9.82;5.50;;;;;;;0.53;100.00;102641.13;5045251;28;20024;-76
2023/04/03 00:25:18;;;;;;;7.95;5.13;;;;;;;0.49;100.00;102639.50;5054087;28;20048;-76
2023/04/03 00:27:44;;;;;;;9.13;5.93;;;;;;;0.47;100.00;102637.03;5054678;28;20084;-76
2023/04/03 00:30:13;;;;;;;8.85;5.50;;;;;;;0.48;100.00;102640.41;5054108;28;20047;-76
2023/04/03 00:32:38;;;;;;;9.63;6.05;;;;;;;0.48;100.00;102636.13;5058781;28;20062;-76
2023/04/03 00:35:05;;;;;;;12.63;6.22;;;;;;;0.48;100.00;102628.47;5062934;28;20659;-76
2023/04/03 00:37:30;;;;;;;9.68;5.50;;;;;;;0.48;100.00;102635.31;5054964;28;20045;-76
2023/04/03 00:39:56;;;;;;;11.07;5.60;;;;;;;0.47;100.00;102634.47;5047254;28;20120;-77
2023/04/03 00:42:22;;;;;;;9.32;5.75;;;;;;;0.47;100.00;102636.16;5060297;28;20047;-76
2023/04/03 00:44:47;;;;;;;18.38;6.45;;;;;;;0.46;100.00;102632.78;5065099;28;20032;-76
2023/04/03 00:47:16;;;;;;;9.73;5.50;;;;;;;0.45;100.00;102630.28;5060236;28;20124;-76
2023/04/03 00:49:42;;;;;;;9.48;6.15;;;;;;;0.43;100.00;102642.25;5062938;28;20093;-76
2023/04/03 00:52:15;;;;;;;11.43;5.15;;;;;;;0.42;100.00;102635.50;5063206;28;20491;-76
2023/04/03 00:54:41;;;;;;;9.18;5.55;;;;;;;0.41;100.00;102636.38;5057455;28;20028;-76
2023/04/03 00:57:07;;;;;;;12.02;6.15;;;;;;;0.37;100.00;102631.34;5060040;28;20048;-76
2023/04/03 00:59:38;;;;;;;9.95;5.85;;;;;;;0.34;100.00;102641.66;5066688;28;20395;-76
2023/04/03 01:02:04;;;;;;;13.05;5.93;;;;;;;0.32;100.00;102634.91;5049265;28;20086;-76
2023/04/03 01:04:39;;;;;;;12.40;6.22;;;;;;;0.30;100.00;102640.06;5052992;28;20029;-77
2023/04/03 01:07:08;;;;;;;12.75;5.88;;;;;;;0.28;100.00;102641.81;5065744;28;20587;-75
2023/04/03 01:09:35;;;;;;;14.15;6.65;;;;;;;0.25;100.00;102641.09;5066972;28;20028;-76
2023/04/03 01:12:20;;;;;;;12.20;5.72;;;;;;;0.21;100.00;102644.59;5062739;28;20049;-76
2023/04/03 01:14:50;;;;;;;10.25;5.30;;;;;;;0.17;100.00;102641.28;5046659;28;20395;-76
2023/04/03 01:17:41;;;;;;;9.38;5.90;;;;;;;0.15;100.00;102643.03;5065133;28;20131;-77
2023/04/03 01:20:35;;;;;;;11.27;6.03;;;;;;;0.14;100.00;102641.38;5063542;28;20119;-76
2023/04/03 01:23:12;;;;;;;11.98;5.50;;;;;;;0.13;100.00;102644.81;5063963;28;20513;-76
2023/04/03 01:25:43;;;;;;;9.52;5.18;;;;;;;0.10;100.00;102647.47;5043602;28;20120;-76
2023/04/03 01:28:35;;;;;;;9.38;5.43;;;;;;;0.05;100.00;102637.38;5063451;28;20093;-76
2023/04/03 01:31:33;;;;;;;8.50;4.85;;;;;;;0.02;100.00;102641.72;5044783;28;20051;-76
2023/04/03 01:33:59;;;;;;;10.68;5.72;;;;;;;-0.01;100.00;102645.19;5050297;28;20070;-76
2023/04/03 01:36:28;;;;;;;9.98;5.38;;;;;;;-0.02;100.00;102643.50;5063757;28;20538;-76
2023/04/03 01:38:54;;;;;;;12.13;6.38;;;;;;;-0.04;100.00;102648.69;5050079;28;20028;-76
2023/04/03 01:41:21;;;;;;;12.93;6.80;;;;;;;-0.05;100.00;102654.66;5040842;28;20105;-76
2023/04/03 01:43:48;;;;;;;12.23;6.40;;;;;;;-0.07;100.00;102656.41;5049430;28;20028;-76
2023/04/03 01:46:15;;;;;;;12.90;6.43;;;;;;;-0.07;100.00;102650.47;5077080;28;20035;-76
2023/04/03 01:48:40;;;;;;;12.38;7.07;;;;;;;-0.10;100.00;102646.28;5051582;28;20199;-76
2023/04/03 01:51:06;;;;;;;13.70;6.13;;;;;;;-0.11;100.00;102654.00;5044811;28;20044;-76
2023/04/03 01:53:31;;;;;;;12.57;6.05;;;;;;;-0.12;100.00;102658.25;5049908;28;20033;-77
2023/04/03 01:55:57;;;;;;;12.75;6.70;;;;;;;-0.14;100.00;102654.91;5064853;28;20048;-76
2023/04/03 01:58:23;;;;;;;10.73;6.78;;;;;;;-0.16;100.00;102655.81;5047168;28;20040;-76
2023/04/03 02:00:51;;;;;;;10.70;6.68;;;;;;;-0.18;100.00;102655.84;5063134;28;20046;-76
2023/04/03 02:03:16;;;;;;;12.73;7.05;;;;;;;-0.20;100.00;102657.63;5063873;28;20394;-76
2023/04/03 02:05:42;;;;;;;9.57;6.68;;;;;;;-0.21;100.00;102658.47;5045691;28;20037;-76
2023/04/03 02:08:08;;;;;;;13.80;6.95;;;;;;;-0.24;100.00;102650.94;5062374;28;20029;-76
2023/04/03 02:10:34;;;;;;;12.10;7.47;;;;;;;-0.27;100.00;102653.56;5062733;28;20024;-76
2023/04/03 02:12:59;;;;;;;16.17;7.65;;;;;;;-0.31;100.00;102652.78;5058748;28;20032;-76
2023/04/03 02:15:25;;;;;;;16.15;7.03;;;;;;;-0.31;100.00;102657.88;5063556;28;20036;-76
2023/04/03 02:17:50;;;;;;;13.30;7.53;;;;;;;-0.32;100.00;102651.13;5059509;28;20045;-76
2023/04/03 02:20:16;;;;;;;15.15;7.70;;;;;;;-0.32;100.00;102660.47;5060966;28;20037;-75
2023/04/03 02:22:41;;;;;;;12.75;7.03;;;;;;;-0.33;100.00;102659.66;5047645;28;20491;-77
2023/04/03 02:25:07;;;;;;;15.43;7.88;;;;;;;-0.34;100.00;102668.19;5064411;28;20040;-76
2023/04/03 02:27:33;;;;;;;16.42;8.55;;;;;;;-0.35;100.00;102665.69;5060839;28;20029;-76
2023/04/03 02:29:59;;;;;;;13.52;8.23;;;;;;;-0.35;100.00;102670.78;5064683;28;20067;-76
2023/04/03 02:32:24;;;;;;;20.40;8.63;;;;;;;-0.35;100.00;102670.78;5059127;28;20036;-75
2023/04/03 02:34:50;;;;;;;12.95;8.57;;;;;;;-0.37;100.00;102668.25;5062290;28;20028;-76
2023/04/03 02:37:16;;;;;;;16.20;8.48;;;;;;;-0.37;100.00;102672.53;5047691;28;20032;-76
2023/04/03 02:39:44;;;;;;;19.90;9.57;;;;;;;-0.37;100.00;102669.97;5063690;28;20043;-76
2023/04/03 02:42:10;;;;;;;19.55;9.73;;;;;;;-0.38;100.00;102664.03;5060307;28;20040;-76
2023/04/03 02:44:35;;;;;;;19.10;9.32;;;;;;;-0.38;100.00;102666.56;5059504;28;20451;-75
2023/04/03 02:47:01;;;;;;;22.05;9.77;;;;;;;-0.33;100.00;102664.75;5062574;28;20040;-76
2023/04/03 02:49:26;;;;;;;17.85;9.05;;;;;;;-0.33;100.00;102674.13;5062877;28;20024;-76
2023/04/03 02:51:52;;;;;;;17.77;9.65;;;;;;;-0.31;100.00;102674.91;5062654;28;20055;-75
2023/04/03 02:54:18;;;;;;;21.50;9.90;;;;;;;-0.28;100.00;102673.13;5045886;28;20068;-76
2023/04/03 02:56:48;;;;;;;18.95;9.45;;;;;;;-0.24;100.00;102669.59;5041452;28;20032;-75
2023/04/03 02:59:14;;;;;;;17.10;8.18;;;;;;;-0.16;100.00;102673.69;5063148;28;20041;-76
2023/04/03 03:01:40;;;;;;;15.82;8.60;;;;;;;-0.16;100.00;102671.13;5061079;28;20028;-76
2023/04/03 03:04:05;;;;;;;15.07;8.50;;;;;;;-0.18;100.00;102678.81;5045937;28;20469;-76
2023/04/03 03:06:31;;;;;;;18.70;7.70;;;;;;;-0.07;100.00;102681.09;5063114;28;20036;-75
2023/04/03 03:08:56;;;;;;;18.08;7.53;;;;;;;-0.10;100.00;102673.50;5063847;28;20083;-76
2023/04/03 03:11:22;;;;;;;19.95;7.60;;;;;;;-0.06;100.00;102682.75;5046692;28;20041;-75
2023/04/03 03:13:48;;;;;;;17.60;7.43;;;;;;;-0.06;100.00;102677.63;5064055;28;20029;-75
2023/04/03 03:16:13;;;;;;;18.38;8.50;;;;;;;-0.03;100.00;102669.91;5062211;28;20107;-76
2023/04/03 03:18:39;;;;;;;18.98;7.78;;;;;;;-0.01;100.00;102671.53;5064771;28;20051;-75
2023/04/03 03:21:05;;;;;;;19.67;6.88;;;;;;;-0.06;100.00;102668.28;5065666;28;20032;-75
2023/04/03 03:23:32;;;;;;;12.73;6.65;;;;;;;-0.09;100.00;102675.19;5059128;28;20028;-75
2023/04/03 03:26:00;;;;;;;15.60;6.90;;;;;;;-0.13;100.00;102669.34;5058650;28;20456;-76
2023/04/03 03:28:26;;;;;;;12.32;6.97;;;;;;;-0.13;100.00;102665.94;5063790;28;20032;-76
2023/04/03 03:30:52;;;;;;;11.48;6.03;;;;;;;-0.14;100.00;102672.75;5060955;28;20055;-76
2023/04/03 03:33:18;;;;;;;16.42;6.97;;;;;;;-0.12;100.00;102662.50;5052072;28;20241;-75
2023/04/03 03:35:44;;;;;;;13.60;5.88;;;;;;;-0.11;100.00;102669.28;5058508;28;20045;-76
2023/04/03 03:38:10;;;;;;;14.07;5.93;;;;;;;-0.12;100.00;102667.59;5045112;28;20036;-75
2023/04/03 03:40:36;;;;;;;12.15;5.72;;;;;;;-0.12;100.00;102672.72;5053464;28;20067;-76
2023/04/03 03:43:02;;;;;;;9.13;5.47;;;;;;;-0.15;100.00;102672.78;5063190;28;20055;-75
2023/04/03 03:45:27;;;;;;;11.02;5.47;;;;;;;-0.17;100.00;102670.28;5061135;28;20128;-75
2023/04/03 03:47:53;;;;;;;11.05;5.30;;;;;;;-0.15;100.00;102675.31;5059113;28;20029;-76
2023/04/03 03:50:19;;;;;;;16.60;5.28;;;;;;;-0.17;100.00;102666.88;5049182;28;20040;-75
2023/04/03 03:52:45;;;;;;;14.23;5.55;;;;;;;-0.21;100.00;102664.44;5059496;28;20056;-76
2023/04/03 03:55:11;;;;;;;10.82;5.10;;;;;;;-0.22;100.00;102675.50;5062602;28;20055;-75
2023/04/03 03:57:37;;;;;;;17.10;5.28;;;;;;;-0.21;100.00;102671.22;5052085;28;20506;-75
2023/04/03 04:00:04;;;;;;;12.90;6.40;;;;;;;-0.23;100.00;102675.53;5061596;28;20033;-75
2023/04/03 04:02:40;;;;;;;12.07;5.30;;;;;;;-0.25;100.00;102675.56;5062425;28;20032;-76
2023/04/03 04:05:07;;;;;;;10.98;4.43;;;;;;;-0.18;100.00;102671.16;5077787;28;20119;-76
2023/04/03 04:07:33;;;;;;;9.07;4.75;;;;;;;-0.22;100.00;102672.13;5059709;28;20036;-76
2023/04/03 04:10:00;;;;;;;11.93;4.93;;;;;;;-0.28;100.00;102677.38;5045592;28;20029;-76
2023/04/03 04:12:25;;;;;;;15.07;5.05;;;;;;;-0.23;100.00;102681.50;5058107;28;20040;-75
2023/04/03 04:14:51;;;;;;;8.13;3.95;;;;;;;-0.20;100.00;102678.84;5064304;28;20090;-76
2023/04/03 04:17:16;;;;;;;10.57;4.25;;;;;;;-0.24;100.00;102684.06;5059883;28;20040;-75
2023/04/03 04:19:42;;;;;;;11.20;3.78;;;;;;;-0.27;100.00;102687.53;5054476;28;20571;-75
2023/04/03 04:22:08;;;;;;;11.55;4.57;;;;;;;-0.31;100.00;102683.38;5048230;28;20033;-76
2023/04/03 04:24:34;;;;;;;9.65;4.38;;;;;;;-0.31;100.00;102696.13;5062280;28;20107;-75
2023/04/03 04:27:01;;;;;;;9.80;4.15;;;;;;;-0.32;100.00;102696.16;5058025;28;20055;-76
2023/04/03 04:29:27;;;;;;;13.57;4.30;;;;;;;-0.35;100.00;102686.91;5045220;28;20029;-76
2023/04/03 04:31:52;;;;;;;8.45;3.25;;;;;;;-0.35;100.00;102686.91;5044130;28;20078;-75
2023/04/03 04:34:20;;;;;;;7.60;3.72;;;;;;;-0.38;100.00;102699.72;5063280;28;20132;-75
2023/04/03 04:36:46;;;;;;;11.52;3.85;;;;;;;-0.37;100.00;102703.94;5053237;28;20111;-76
2023/04/03 04:39:12;;;;;;;8.93;4.30;;;;;;;-0.36;100.00;102704.78;5069949;28;20091;-75
2023/04/03 04:41:38;;;;;;;6.35;3.13;;;;;;;-0.39;100.00;102703.16;5066844;28;20568;-75
2023/04/03 04:44:05;;;;;;;11.10;3.80;;;;;;;-0.22;100.00;102707.81;5068790;28;20039;-76
2023/04/03 04:46:31;;;;;;;13.45;4.00;;;;;;;-0.23;100.00;102712.09;5048267;28;20028;-75
2023/04/03 04:48:58;;;;;;;9.40;4.10;;;;;;;-0.30;100.00;102717.38;5052110;28;20478;-75
2023/04/03 04:51:27;;;;;;;11.07;3.92;;;;;;;-0.34;100.00;102720.88;5050648;28;20071;-76
2023/04/03 04:53:52;;;;;;;8.80;3.58;;;;;;;-0.37;100.00;102715.88;5052866;28;20025;-76
2023/04/03 04:56:19;;;;;;;8.35;3.58;;;;;;;-0.39;100.00;102721.00;5062394;28;20502;-75
2023/04/03 04:58:45;;;;;;;13.52;3.75;;;;;;;-0.44;100.00;102717.72;5068932;28;20032;-76
2023/04/03 05:01:11;;;;;;;8.52;3.65;;;;;;;-0.41;100.00;102723.56;5062315;28;20044;-75
2023/04/03 05:03:45;;;;;;;14.18;4.28;;;;;;;-0.41;100.00;102722.75;5064179;28;20028;-75
2023/04/03 05:06:11;;;;;;;12.55;4.30;;;;;;;-0.37;100.00;102716.69;5067981;28;20112;-75
2023/04/03 05:08:37;;;;;;;8.88;3.50;;;;;;;-0.43;100.00;102717.69;5061234;28;20021;-75
2023/04/03 05:11:03;;;;;;;8.43;3.78;;;;;;;-0.47;100.00;102721.19;5050590;28;20118;-76
2023/04/03 05:13:30;;;;;;;15.48;3.67;;;;;;;-0.45;100.00;102721.16;5047195;28;20028;-75
2023/04/03 05:15:56;;;;;;;9.18;3.88;;;;;;;-0.49;100.00;102724.63;5063348;28;20029;-76
2023/04/03 05:18:22;;;;;;;10.15;4.25;;;;;;;-0.44;100.00;102731.28;5051222;28;20055;-76
2023/04/03 05:20:50;;;;;;;10.90;4.18;;;;;;;-0.45;100.00;102731.34;5065615;28;20097;-76
2023/04/03 05:23:17;;;;;;;12.02;3.60;;;;;;;-0.39;100.00;102736.28;5046560;28;20033;-76
2023/04/03 05:25:46;;;;;;;10.30;3.53;;;;;;;-0.43;100.00;102737.25;5061285;28;20045;-76
2023/04/03 05:28:12;;;;;;;9.00;4.00;;;;;;;-0.45;100.00;102733.91;5076041;28;20395;-76
2023/04/03 05:30:38;;;;;;;16.05;4.75;;;;;;;-0.29;100.00;102731.78;5061598;28;20037;-75
2023/04/03 05:33:04;;;;;;;8.98;3.80;;;;;;;-0.24;100.00;102740.19;5061821;28;20031;-76
2023/04/03 05:35:41;;;;;;;10.48;5.40;;;;;;;-0.20;100.00;102737.50;5060823;28;20506;-75
2023/04/03 05:38:09;;;;;;;11.25;4.07;;;;;;;-0.24;100.00;102743.56;5063374;28;20052;-75
2023/04/03 05:40:35;;;;;;;12.48;4.05;;;;;;;-0.25;100.00;102749.50;5061255;28;20074;-76
2023/04/03 05:43:00;;;;;;;10.82;3.90;;;;;;;-0.18;100.00;102750.22;5050238;28;20029;-76
2023/04/03 05:45:30;;;;;;;12.32;4.03;;;;;;;-0.20;100.00;102747.69;5063682;28;20035;-75
2023/04/03 05:47:57;;;;;;;10.75;3.47;;;;;;;-0.20;100.00;102754.53;5049317;28;20857;-76
2023/04/03 05:50:23;;;;;;;8.00;2.95;;;;;;;-0.18;100.00;102754.50;5046965;28;20043;-76
2023/04/03 05:52:56;;;;;;;13.60;3.60;;;;;;;-0.12;100.00;102760.25;5063078;28;20028;-76
2023/04/03 05:55:22;;;;;;;11.60;4.00;;;;;;;-0.11;100.00;102761.13;5042809;28;20055;-77
2023/04/03 05:57:48;;;;;;;12.85;4.32;;;;;;;-0.06;100.00;102766.91;5053236;28;20024;-76
2023/04/03 06:00:18;;;;;;;14.32;4.80;;;;;;;-0.05;100.00;102764.31;5060008;28;20521;-77
2023/04/03 06:02:52;;;;;;;7.40;3.00;;;;;;;-0.01;98.96;102765.91;5054808;28;20033;-76
2023/04/03 06:05:22;;;;;;;8.55;2.95;;;;;;;0.02;99.06;102767.56;5062592;28;20115;-77
2023/04/03 06:07:49;;;;;;;9.40;3.38;;;;;;;0.14;98.77;102766.41;5051474;28;20035;-76
2023/04/03 06:10:15;;;;;;;14.65;3.35;;;;;;;0.17;98.91;102771.41;5064990;28;20029;-75
2023/04/03 06:12:41;;;;;;;11.10;3.40;;;;;;;0.20;98.58;102776.44;5060277;28;20033;-75
2023/04/03 06:15:09;;;;;;;7.35;3.50;;;;;;;0.17;98.32;102768.84;5048921;28;20044;-76
2023/04/03 06:17:36;;;;;;;9.75;3.58;;;;;;;0.19;98.78;102764.59;5065592;28;20028;-76
2023/04/03 06:20:03;;;;;;;14.50;3.22;;;;;;;0.21;98.28;102767.06;5050396;28;20037;-75
2023/04/03 06:22:29;;;;;;;15.45;3.10;;;;;;;0.24;98.69;102772.09;5048419;28;20468;-76
2023/04/03 06:24:56;;;;;;;8.85;3.17;;;;;;;0.28;98.19;102771.13;5063689;28;20028;-76
2023/04/03 06:27:22;;;;;;;9.82;2.72;;;;;;;0.41;96.81;102775.03;5060714;28;20115;-76
2023/04/03 06:29:48;;;;;;;7.80;2.80;;;;;;;0.47;96.61;102774.03;5065526;28;20120;-75
2023/04/03 06:32:14;;;;;;;9.88;2.97;;;;;;;0.56;96.68;102771.22;5058929;28;20295;-75
2023/04/03 06:34:41;;;;;;;6.75;2.35;;;;;;;0.62;96.79;102771.03;5050853;28;20047;-76
2023/04/03 06:37:20;;;;;;;20.35;5.35;;;;;;;0.77;95.35;102777.44;5048369;28;20036;-76
2023/04/03 06:39:45;;;;;;;9.30;2.92;;;;;;;0.91;94.77;102766.84;5060423;28;20072;-75
2023/04/03 06:42:11;;;;;;;9.70;2.75;;;;;;;1.02;94.09;102771.59;5063785;28;20036;-76
2023/04/03 06:44:45;;;;;;;11.45;2.88;;;;;;;1.20;93.82;102771.06;5046638;28;20032;-75
2023/04/03 06:47:12;;;;;;;11.20;3.38;;;;;;;1.41;93.32;102777.22;5048076;28;20043;-75
2023/04/03 06:49:38;;;;;;;15.45;3.05;;;;;;;1.59;92.15;102770.69;5043482;28;20417;-76
2023/04/03 06:52:04;;;;;;;8.27;2.90;;;;;;;1.81;90.08;102775.97;5063088;28;20094;-76
2023/04/03 06:54:30;;;;;;;13.55;2.80;;;;;;;2.38;88.38;102776.56;5064987;28;20044;-76
2023/04/03 06:56:55;;;;;;;11.10;3.75;;;;;;;3.08;84.88;102770.56;5058960;28;20044;-77
2023/04/03 06:59:21;;;;;;;6.43;2.35;;;;;;;3.94;81.57;102770.53;5064994;28;20040;-75
2023/04/03 07:01:47;;;;;;;8.65;2.55;;;;;;;4.62;76.53;102774.44;5048339;28;20032;-77
2023/04/03 07:04:12;;;;;;;9.05;2.28;;;;;;;4.81;72.45;102771.03;5064838;28;20047;-76
2023/04/03 07:06:38;;;;;;;8.05;2.20;;;;;;;5.13;71.18;102764.38;5063096;28;20399;-76
2023/04/03 07:09:03;;;;;;;8.23;2.20;;;;;;;5.49;69.66;102758.38;5063439;28;20037;-76
2023/04/03 07:11:29;;;;;;;5.93;1.80;;;;;;;6.35;67.17;102766.13;5046723;28;20037;-76
2023/04/03 07:13:54;;;;;;;10.07;2.75;;;;;;;6.39;66.04;102760.72;5040830;28;20393;-76
2023/04/03 07:16:20;;;;;;;10.13;2.40;;;;;;;6.30;64.58;102771.50;5068064;28;20093;-76
2023/04/03 07:18:46;;;;;;;9.82;2.13;;;;;;;6.45;63.42;102777.59;5064155;28;20062;-76
2023/04/03 07:21:12;;;;;;;13.70;2.92;;;;;;;6.52;63.25;102780.69;5066684;28;20041;-76
2023/04/03 07:23:38;;;;;;;8.50;2.10;;;;;;;6.72;64.10;102785.59;5062986;28;20126;-76
2023/04/03 07:26:03;;;;;;;5.28;1.83;;;;;;;6.73;62.18;102787.28;5049955;28;20407;-77
2023/04/03 07:28:29;;;;;;;8.07;2.58;;;;;;;7.03;62.41;102783.94;5048325;28;20048;-76
2023/04/03 07:31:03;;;;;;;13.82;3.25;;;;;;;7.01;62.08;102791.78;5061709;28;20033;-75
2023/04/03 07:33:29;;;;;;;9.45;2.15;;;;;;;6.29;61.39;102808.50;5065676;28;20029;-76
2023/04/03 07:35:55;;;;;;;9.68;2.30;;;;;;;6.80;62.51;102800.69;5044754;28;20060;-76
2023/04/03 07:38:20;;;;;;;3.97;1.70;;;;;;;7.15;60.75;102803.91;5065309;28;20070;-75
2023/04/03 07:40:50;;;;;;;11.60;2.00;;;;;;;7.72;58.90;102799.88;5066328;28;20040;-76
2023/04/03 07:43:17;;;;;;;10.13;3.00;;;;;;;8.45;58.45;102799.88;5066373;28;20064;-77
2023/04/03 07:45:43;;;;;;;5.68;2.40;;;;;;;8.77;56.73;102795.31;5064132;28;20567;-76
2023/04/03 07:48:12;;;;;;;7.85;1.90;;;;;;;8.55;57.32;102798.41;5040848;28;20127;-76
2023/04/03 07:50:40;;;;;;;10.27;2.40;;;;;;;8.82;55.90;102801.97;5063095;28;20496;-76
2023/04/03 07:53:05;;;;;;;10.45;2.47;;;;;;;8.94;55.06;102794.25;5063543;28;20039;-76
2023/04/03 07:55:32;;;;;;;8.38;1.90;;;;;;;9.32;56.32;102798.78;5059298;28;20040;-76
2023/04/03 07:57:57;;;;;;;6.38;2.00;;;;;;;9.29;53.12;102798.13;5066216;28;20678;-76
2023/04/03 08:00:23;;;;;;;12.00;1.80;;;;;;;8.70;53.28;102804.41;5062009;28;20040;-75
2023/04/03 08:02:51;;;;;;;11.70;2.40;;;;;;;8.15;54.69;102805.09;5065175;28;20074;-76
2023/04/03 08:05:18;;;;;;;5.20;1.50;;;;;;;8.93;53.98;102807.31;5060232;28;20673;-75
2023/04/03 08:07:44;;;;;;;7.78;1.55;;;;;;;9.39;53.10;102808.72;5061435;28;20032;-76
2023/04/03 08:10:09;;;;;;;4.72;1.85;;;;;;;9.28;50.35;102804.22;5057872;28;20583;-75
2023/04/03 08:12:36;;;;;;;9.57;1.60;;;;;;;8.66;50.85;102796.91;5044731;28;20533;-75
2023/04/03 08:15:03;;;;;;;9.18;1.73;;;;;;;9.15;51.54;102805.03;5053769;28;20053;-75
2023/04/03 08:17:28;;;;;;;5.53;1.58;;;;;;;8.91;50.37;102812.56;5061626;28;20048;-75
2023/04/03 08:19:54;;;;;;;8.75;1.80;;;;;;;8.90;51.06;102810.09;5062651;28;20479;-76
2023/04/03 08:22:19;;;;;;;5.90;1.88;;;;;;;8.71;49.55;102805.22;5060698;28;20029;-77
2023/04/03 08:24:45;;;;;;;3.20;1.30;;;;;;;8.88;49.81;102804.19;5059705;28;20025;-75
2023/04/03 08:27:10;;;;;;;9.00;1.48;;;;;;;9.16;50.62;102801.50;5055411;28;21065;-77
2023/04/03 08:29:37;;;;;;;5.93;1.40;;;;;;;8.89;49.50;102806.66;5064306;28;20029;-77
2023/04/03 08:32:04;;;;;;;6.47;1.42;;;;;;;8.91;49.21;102803.97;5063379;28;20036;-75
2023/04/03 08:34:30;;;;;;;5.38;1.55;;;;;;;8.62;49.25;102803.19;5063588;28;20032;-76
2023/04/03 08:36:56;;;;;;;7.90;1.60;;;;;;;9.10;48.53;102812.25;5062334;28;20554;-77
2023/04/03 08:39:21;;;;;;;8.93;1.70;;;;;;;9.52;48.38;102800.03;5056739;28;20037;-76
2023/04/03 08:41:47;;;;;;;7.38;1.65;;;;;;;9.72;47.61;102810.88;5061638;28;20090;-76
2023/04/03 08:44:31;;;;;;;6.50;1.65;;;;;;;9.00;45.59;102808.56;5044656;28;20041;-75
2023/04/03 08:47:24;;;;;;;3.03;1.40;;;;;;;8.98;45.57;102805.25;5058042;28;20028;-75
2023/04/03 08:49:59;;;;;;;;;;;;;;;9.11;45.79;102811.31;5062831;28;20507;-75
2023/04/03 08:52:41;;;;;;;4.10;1.00;;;;;;;9.23;45.90;102812.31;5060554;28;19942;-76
2023/04/03 08:55:37;;;;;;;4.55;1.20;;;;;;;9.35;43.64;102811.50;5046961;28;20043;-75
2023/04/03 08:58:15;;;;;;;7.80;1.33;;;;;;;9.23;43.02;102808.88;5061743;28;20036;-76
2023/04/03 09:00:47;;;;;;;5.32;1.42;;;;;;;9.41;43.81;102805.09;5056392;28;20048;-75
2023/04/03 09:03:15;;;;;;;4.18;1.15;;;;;;;9.38;43.19;102812.22;5063507;28;20501;-75
2023/04/03 09:05:58;;;;;;;7.28;1.50;;;;;;;9.14;41.12;102811.13;5063734;28;20479;-76
2023/04/03 09:08:40;;;;;;;3.58;1.80;;;;;;;9.16;42.81;102809.25;5042196;28;20033;-76
2023/04/03 09:11:27;;;;;;;4.72;1.33;;;;;;;9.72;43.82;102806.53;5056951;28;20479;-76
2023/04/03 09:14:01;;;;;;;4.75;1.08;;;;;;;9.46;43.26;102810.81;5060046;28;20028;-75
2023/04/03 09:16:53;;;;;;;7.47;1.42;;;;;;;9.09;41.30;102812.34;5062678;28;20529;-75
2023/04/03 09:19:33;;;;;;;5.10;1.13;;;;;;;9.20;42.01;102803.91;5060453;28;20471;-75
2023/04/03 09:22:11;;;;;;;2.83;1.10;;;;;;;8.89;42.37;102808.41;5060477;28;20048;-75
2023/04/03 09:24:37;;;;;;;3.55;1.60;;;;;;;9.20;41.76;102806.50;5062255;28;20423;-75
2023/04/03 09:27:09;;;;;;;4.05;1.13;;;;;;;9.00;41.54;102805.16;5063274;28;20040;-75
2023/04/03 09:29:39;;;;;;;5.18;1.13;;;;;;;9.14;42.29;102808.53;5062667;28;20029;-76
2023/04/03 09:32:20;;;;;;;1.80;0.85;;;;;;;9.14;42.99;102810.31;5058331;28;20045;-76
2023/04/03 09:34:48;;;;;;;2.80;0.90;;;;;;;9.25;42.71;102805.28;5057427;28;20553;-76
2023/04/03 09:37:33;;;;;;;1.35;0.75;;;;;;;9.12;40.91;102807.81;5050552;28;20028;-76
2023/04/03 09:39:59;;;;;;;7.13;1.95;;;;;;;9.04;41.08;102812.66;5069490;28;20025;-75
2023/04/03 09:42:26;;;;;;;5.95;0.90;;;;;;;8.74;39.02;102810.22;5067689;28;20069;-76
2023/04/03 09:44:58;;;;;;;2.83;0.95;;;;;;;8.96;39.64;102805.34;5067942;28;20032;-75
2023/04/03 09:47:29;;;;;;;2.92;0.82;;;;;;;8.82;39.29;102795.03;5048604;28;20052;-76
2023/04/03 09:50:17;;;;;;;2.65;0.90;;;;;;;9.00;40.27;102798.22;5060295;28;20106;-75
2023/04/03 09:52:44;;;;;;;2.53;0.80;;;;;;;8.70;40.83;102795.78;5061764;28;20136;-76
2023/04/03 09:55:26;;;;;;;5.18;1.08;;;;;;;9.03;41.28;102799.78;5068580;28;20046;-77
2023/04/03 09:57:59;;;;;;;2.87;1.10;;;;;;;8.94;41.73;102796.84;5064708;28;20508;-76
2023/04/03 10:00:28;;;;;;;2.97;0.63;;;;;;;8.89;39.90;102790.28;5076299;28;20032;-77
2023/04/03 10:02:58;;;;;;;3.35;0.80;;;;;;;8.50;41.07;102797.03;5057800;28;20044;-75
2023/04/03 10:05:28;;;;;;;3.35;0.68;;;;;;;8.38;39.27;102790.81;5066727;28;20036;-75
2023/04/03 10:08:14;;;;;;;7.22;0.93;;;;;;;8.04;40.05;102798.00;5059230;28;20033;-77
2023/04/03 10:10:46;;;;;;;4.15;1.48;;;;;;;8.14;40.29;102793.94;5056080;28;20032;-75
2023/04/03 10:13:20;;;;;;;1.42;0.90;;;;;;;8.15;40.41;102794.78;5062121;28;20028;-75
2023/04/03 10:15:52;;;;;;;1.98;0.63;;;;;;;7.98;39.97;102799.19;5062968;27;20097;-81
2023/04/03 10:18:31;;;;;;;2.90;0.85;;;;;;;7.40;40.27;102794.78;5046999;28;20079;-75
2023/04/03 10:21:14;;;;;;;2.83;1.02;;;;;;;8.13;42.81;102791.44;5059340;28;20033;-76
2023/04/03 10:23:54;;;;;;;2.92;1.20;;;;;;;8.04;41.16;102790.22;5061037;28;20123;-78
2023/04/03 10:26:49;;;;;;;4.80;1.95;;;;;;;8.47;43.54;102795.44;5059732;28;20025;-76
2023/04/03 10:29:29;;;;;;;3.53;1.15;;;;;;;8.59;41.68;102783.53;5062689;28;20405;-75
2023/04/03 10:31:55;;;;;;;2.55;1.10;;;;;;;8.75;41.37;102786.81;5061276;28;20434;-76
2023/04/03 10:34:41;;;;;;;2.63;1.00;;;;;;;8.31;39.85;102784.38;5064351;28;20136;-78
2023/04/03 10:37:21;;;;;;;2.00;1.00;;;;;;;8.20;41.12;102779.84;5064606;28;20387;-76
2023/04/03 10:39:48;;;;;;;5.18;1.02;;;;;;;8.09;40.65;102782.22;5045577;28;20039;-77
2023/04/03 10:42:50;;;;;;;3.20;1.00;;;;;;;8.29;40.91;102771.53;5043399;28;20044;-77
2023/04/03 10:45:30;;;;;;;5.00;0.98;;;;;;;8.18;43.30;102764.41;5011190;28;20230;-76
2023/04/03 10:48:11;;;;;;;3.80;1.50;;;;;;;8.57;42.50;102768.13;5065959;28;20090;-76
2023/04/03 10:51:06;;;;;;;3.67;1.08;;;;;;;8.82;44.01;102764.00;5065268;28;20406;-76
2023/04/03 10:53:35;;;;;;;6.88;1.00;;;;;;;9.01;42.77;102757.66;5061036;28;20029;-76
2023/04/03 10:56:10;;;;;;;3.60;1.63;;;;;;;8.99;42.33;102757.75;5046359;28;20077;-76
2023/04/03 10:58:40;;;;;;;5.07;1.05;;;;;;;9.13;43.06;102749.09;5060898;28;20091;-76
2023/04/03 11:01:10;;;;;;;4.18;1.05;;;;;;;8.80;40.72;102749.47;5039721;28;20033;-76
2023/04/03 11:03:41;;;;;;;4.90;2.25;;;;;;;8.76;44.64;102746.28;5046435;28;20113;-76
2023/04/03 11:06:10;;;;;;;6.97;1.33;;;;;;;8.88;43.11;102739.50;5059246;28;20123;-77
2023/04/03 11:08:46;;;;;;;3.80;1.25;;;;;;;8.82;44.98;102743.31;5043502;28;20601;-76
2023/04/03 11:11:16;;;;;;;2.00;1.15;;;;;;;9.10;41.34;102736.38;5044446;28;20044;-77
2023/04/03 11:13:49;;;;;;;4.80;1.17;;;;;;;8.74;41.62;102748.97;5078718;28;20037;-76
2023/04/03 11:16:25;;;;;;;3.95;1.20;;;;;;;8.86;42.45;102736.19;5058647;28;20032;-77
2023/04/03 11:19:11;;;;;;;7.00;1.38;;;;;;;9.06;42.35;102738.31;5056863;28;20888;-76
2023/04/03 11:21:44;;;;;;;4.97;1.05;;;;;;;9.18;42.82;102730.69;5061922;28;20032;-77
2023/04/03 11:24:27;;;;;;;4.47;1.50;;;;;;;9.02;41.13;102731.66;5055841;28;20040;-76
2023/04/03 11:26:56;;;;;;;4.65;1.23;;;;;;;9.29;41.77;102731.66;5063934;28;20029;-76
2023/04/03 11:29:28;;;;;;;8.13;1.23;;;;;;;9.30;43.37;102730.69;5063844;28;20021;-76
2023/04/03 11:32:05;;;;;;;7.70;1.20;;;;;;;9.39;44.67;102733.63;5053133;28;20036;-76